Time,TemperatureF,DewpointF,PressureIn,WindDirection,WindDirectionDegrees,WindSpeedMPH,WindSpeedGustMPH,Humidity,HourlyPrecipIn,Conditions,Clouds,dailyrainin,SoftwareType,DateUTC
2013-05-08 00:07:00,32.0,28.3,29.84,ESE,112,0.0,-999.0,86,-99.99,,,0.00,Acu-Link.com,2013-05-08 06:07:00,
2013-05-08 00:23:00,31.8,28.1,29.84,ESE,112,0.0,-999.0,86,-99.99,,,0.00,Acu-Link.com,2013-05-08 06:23:00,
2013-05-08 00:38:00,31.3,27.3,29.83,ESE,112,0.0,-999.0,85,-99.99,,,0.00,Acu-Link.com,2013-05-08 06:38:00,
2013-05-08 00:53:00,30.4,27.6,29.83,ESE,112,0.0,-999.0,89,-99.99,,,0.00,Acu-Link.com,2013-05-08 06:53:00,
2013-05-08 01:08:00,29.7,27.1,29.82,ESE,112,1.7,-999.0,90,-99.99,,,0.00,Acu-Link.com,2013-05-08 07:08:00,
2013-05-08 01:23:00,29.5,27.2,29.82,ESE,112,0.0,-999.0,91,-99.99,,,0.00,Acu-Link.com,2013-05-08 07:23:00,
2013-05-08 01:38:00,29.3,26.5,29.81,ESE,112,0.0,-999.0,89,-99.99,,,0.00,Acu-Link.com,2013-05-08 07:38:00,
2013-05-08 01:53:00,28.4,25.3,29.81,ESE,112,0.0,-999.0,88,-99.99,,,0.00,Acu-Link.com,2013-05-08 07:53:00,
2013-05-08 02:09:00,28.2,26.4,29.80,ESE,112,0.0,-999.0,93,-99.99,,,0.00,Acu-Link.com,2013-05-08 08:09:00,
2013-05-08 02:24:00,27.9,25.6,29.80,ESE,112,0.0,-999.0,91,-99.99,,,0.00,Acu-Link.com,2013-05-08 08:24:00,
2013-05-08 02:40:00,27.9,26.1,29.80,ESE,112,0.0,-999.0,93,-99.99,,,0.00,Acu-Link.com,2013-05-08 08:40:00,
2013-05-08 02:55:00,27.5,25.7,29.79,ESE,112,0.0,-999.0,93,-99.99,,,0.00,Acu-Link.com,2013-05-08 08:55:00,
2013-05-08 03:10:00,27.1,25.9,29.79,ESE,112,2.7,-999.0,95,-99.99,,,0.00,Acu-Link.com,2013-05-08 09:10:00,
2013-05-08 03:25:00,26.6,25.4,29.80,ESE,112,0.0,-999.0,95,-99.99,,,0.00,Acu-Link.com,2013-05-08 09:25:00,
2013-05-08 03:40:00,27.0,26.3,29.80,ESE,112,2.7,-999.0,97,-99.99,,,0.00,Acu-Link.com,2013-05-08 09:40:00,
2013-05-08 03:55:00,26.8,26.1,29.80,ESE,112,2.7,-999.0,97,-99.99,,,0.00,Acu-Link.com,2013-05-08 09:55:00,
2013-05-08 04:10:00,26.8,26.1,29.80,ESE,112,1.7,-999.0,97,-99.99,,,0.00,Acu-Link.com,2013-05-08 10:10:00,
2013-05-08 04:26:00,27.0,26.3,29.80,ESE,112,2.2,-999.0,97,-99.99,,,0.00,Acu-Link.com,2013-05-08 10:26:00,
2013-05-08 04:41:00,27.5,26.5,29.80,ESE,112,2.2,-999.0,96,-99.99,,,0.00,Acu-Link.com,2013-05-08 10:41:00,
2013-05-08 04:56:00,27.7,26.2,29.79,ESE,112,1.7,-999.0,94,-99.99,,,0.00,Acu-Link.com,2013-05-08 10:56:00,
2013-05-08 05:11:00,27.7,25.9,29.79,ESE,112,2.7,-999.0,93,-99.99,,,0.00,Acu-Link.com,2013-05-08 11:11:00,
2013-05-08 05:26:00,27.5,25.5,29.79,ESE,112,2.2,-999.0,92,-99.99,,,0.00,Acu-Link.com,2013-05-08 11:26:00,
2013-05-08 05:41:00,27.1,25.1,29.79,ESE,112,0.0,-999.0,92,-99.99,,,0.00,Acu-Link.com,2013-05-08 11:41:00,
2013-05-08 05:56:00,27.0,25.0,29.79,ESE,112,1.1,-999.0,92,-99.99,,,0.00,Acu-Link.com,2013-05-08 11:56:00,
2013-05-08 06:12:00,26.6,24.6,29.79,ESE,112,1.7,-999.0,92,-99.99,,,0.00,Acu-Link.com,2013-05-08 12:12:00,
2013-05-08 06:27:00,26.4,24.4,29.80,ESE,112,0.0,-999.0,92,-99.99,,,0.00,Acu-Link.com,2013-05-08 12:27:00,
2013-05-08 06:42:00,27.0,25.3,29.81,ESE,112,0.0,-999.0,93,-99.99,,,0.00,Acu-Link.com,2013-05-08 12:42:00,
2013-05-08 06:57:00,27.7,25.7,29.81,ESE,112,0.0,-999.0,92,-99.99,,,0.00,Acu-Link.com,2013-05-08 12:57:00,
2013-05-08 07:12:00,28.8,26.5,29.81,ESE,112,0.0,-999.0,91,-99.99,,,0.00,Acu-Link.com,2013-05-08 13:12:00,
2013-05-08 07:27:00,31.3,27.6,29.81,ESE,112,0.0,-999.0,86,-99.99,,,0.00,Acu-Link.com,2013-05-08 13:27:00,
2013-05-08 07:42:00,32.0,28.3,29.82,ESE,112,0.0,-999.0,86,-99.99,,,0.00,Acu-Link.com,2013-05-08 13:42:00,
2013-05-08 07:57:00,35.6,30.4,29.81,ESE,112,2.7,-999.0,81,-99.99,,,0.00,Acu-Link.com,2013-05-08 13:57:00,
2013-05-08 08:12:00,36.9,30.4,29.82,ESE,112,2.7,-999.0,77,-99.99,,,0.00,Acu-Link.com,2013-05-08 14:12:00,
2013-05-08 08:28:00,40.3,31.0,29.82,ESE,112,2.2,-999.0,69,-99.99,,,0.00,Acu-Link.com,2013-05-08 14:28:00,
2013-05-08 08:43:00,40.1,29.7,29.82,ESE,112,3.7,-999.0,66,-99.99,,,0.00,Acu-Link.com,2013-05-08 14:43:00,
2013-05-08 08:58:00,42.3,29.8,29.82,ESE,112,2.7,-999.0,61,-99.99,,,0.00,Acu-Link.com,2013-05-08 14:58:00,
2013-05-08 09:13:00,44.2,30.8,29.82,ESE,112,2.2,-999.0,59,-99.99,,,0.00,Acu-Link.com,2013-05-08 15:13:00,
2013-05-08 09:28:00,43.7,31.1,29.82,ESE,112,4.7,-999.0,61,-99.99,,,0.00,Acu-Link.com,2013-05-08 15:28:00,
2013-05-08 09:43:00,44.2,30.4,29.83,ESE,112,4.7,-999.0,58,-99.99,,,0.00,Acu-Link.com,2013-05-08 15:43:00,
2013-05-08 09:59:00,46.6,30.9,29.83,ESE,112,8.3,-999.0,54,-99.99,,,0.00,Acu-Link.com,2013-05-08 15:59:00,
2013-05-08 10:14:00,46.8,30.6,29.83,ESE,112,4.2,-999.0,53,-99.99,,,0.00,Acu-Link.com,2013-05-08 16:14:00,
2013-05-08 10:29:00,45.9,29.7,29.83,ESE,112,3.7,-999.0,53,-99.99,,,0.00,Acu-Link.com,2013-05-08 16:29:00,
2013-05-08 10:44:00,46.2,31.4,29.83,ESE,112,3.2,-999.0,56,-99.99,,,0.00,Acu-Link.com,2013-05-08 16:44:00,
2013-05-08 10:59:00,42.6,30.9,29.83,ENE,67,2.2,-999.0,63,-99.99,,,0.00,Acu-Link.com,2013-05-08 16:59:00,
2013-05-08 11:14:00,46.0,31.6,29.84,ESE,112,3.2,-999.0,57,-99.99,,,0.00,Acu-Link.com,2013-05-08 17:14:00,
2013-05-08 11:29:00,41.5,32.1,29.84,ESE,112,5.8,-999.0,69,-99.99,,,0.00,Acu-Link.com,2013-05-08 17:29:00,
2013-05-08 11:44:00,45.5,32.0,29.83,ESE,112,2.2,-999.0,59,-99.99,,,0.00,Acu-Link.com,2013-05-08 17:44:00,
2013-05-08 11:59:00,42.1,29.6,29.83,NNW,337,3.7,-999.0,61,-99.99,,,0.00,Acu-Link.com,2013-05-08 17:59:00,
2013-05-08 12:15:00,43.2,30.7,29.82,ENE,67,2.7,-999.0,61,-99.99,,,0.00,Acu-Link.com,2013-05-08 18:15:00,
2013-05-08 12:30:00,40.8,30.0,29.83,East,90,3.7,-999.0,65,-99.99,,,0.00,Acu-Link.com,2013-05-08 18:30:00,
2013-05-08 12:45:00,41.7,29.3,29.83,East,90,7.3,-999.0,61,-99.99,,,0.00,Acu-Link.com,2013-05-08 18:45:00,
2013-05-08 13:00:00,48.6,29.8,29.83,ESE,112,10.9,-999.0,48,-99.99,,,0.00,Acu-Link.com,2013-05-08 19:00:00,
2013-05-08 13:15:00,45.1,30.8,29.83,ESE,112,4.2,-999.0,57,-99.99,,,0.00,Acu-Link.com,2013-05-08 19:15:00,
2013-05-08 13:30:00,42.6,29.7,29.83,ESE,112,2.2,-999.0,60,-99.99,,,0.00,Acu-Link.com,2013-05-08 19:30:00,
2013-05-08 13:45:00,43.0,32.4,29.84,ENE,67,3.2,-999.0,66,-99.99,,,0.00,Acu-Link.com,2013-05-08 19:45:00,
2013-05-08 14:00:00,37.9,32.6,29.85,ENE,67,3.2,-999.0,81,-99.99,,,0.00,Acu-Link.com,2013-05-08 20:00:00,
2013-05-08 14:15:00,36.9,32.5,29.84,ENE,67,4.2,-999.0,84,-99.99,,,0.00,Acu-Link.com,2013-05-08 20:15:00,
2013-05-08 14:31:00,37.4,32.7,29.85,ENE,67,1.7,-999.0,83,-99.99,,,0.01,Acu-Link.com,2013-05-08 20:31:00,
2013-05-08 14:46:00,36.7,32.0,29.84,ENE,67,6.3,-999.0,83,-99.99,,,0.01,Acu-Link.com,2013-05-08 20:46:00,
2013-05-08 15:01:00,40.3,32.0,29.84,ENE,67,1.7,-999.0,72,-99.99,,,0.01,Acu-Link.com,2013-05-08 21:01:00,
2013-05-08 15:16:00,36.0,32.2,29.86,ENE,67,2.2,-999.0,86,-99.99,,,0.01,Acu-Link.com,2013-05-08 21:16:00,
2013-05-08 15:31:00,35.1,32.2,29.86,ENE,67,1.7,-999.0,89,-99.99,,,0.01,Acu-Link.com,2013-05-08 21:31:00,
2013-05-08 15:46:00,33.6,31.8,29.87,ENE,67,0.0,-999.0,93,-99.99,,,0.01,Acu-Link.com,2013-05-08 21:46:00,
2013-05-08 16:01:00,33.6,31.8,29.86,ENE,67,1.7,-999.0,93,-99.99,,,0.01,Acu-Link.com,2013-05-08 22:01:00,
2013-05-08 16:16:00,33.6,31.8,29.85,ENE,67,0.0,-999.0,93,-99.99,,,0.01,Acu-Link.com,2013-05-08 22:16:00,
2013-05-08 16:31:00,34.0,32.2,29.85,ENE,67,1.1,-999.0,93,-99.99,,,0.01,Acu-Link.com,2013-05-08 22:31:00,
2013-05-08 16:47:00,35.6,33.0,29.85,ENE,67,1.7,-999.0,90,-99.99,,,0.01,Acu-Link.com,2013-05-08 22:47:00,
2013-05-08 17:02:00,36.5,33.6,29.85,ENE,67,1.7,-999.0,89,-99.99,,,0.01,Acu-Link.com,2013-05-08 23:02:00,
2013-05-08 17:17:00,37.4,34.2,29.85,ENE,67,2.7,-999.0,88,-99.99,,,0.01,Acu-Link.com,2013-05-08 23:17:00,
2013-05-08 17:32:00,39.4,35.3,29.84,ENE,67,1.7,-999.0,85,-99.99,,,0.01,Acu-Link.com,2013-05-08 23:32:00,
2013-05-08 17:47:00,38.5,34.4,29.85,ENE,67,2.2,-999.0,85,-99.99,,,0.01,Acu-Link.com,2013-05-08 23:47:00,
2013-05-08 18:02:00,34.2,32.4,29.87,ENE,67,2.7,-999.0,93,-99.99,,,0.05,Acu-Link.com,2013-05-09 00:02:00,
2013-05-08 18:17:00,35.4,32.8,29.86,ENE,67,1.1,-999.0,90,-99.99,,,0.05,Acu-Link.com,2013-05-09 00:17:00,
2013-05-08 18:32:00,36.1,32.9,29.86,ENE,67,1.1,-999.0,88,-99.99,,,0.05,Acu-Link.com,2013-05-09 00:32:00,
2013-05-08 18:47:00,35.6,33.0,29.85,ENE,67,1.1,-999.0,90,-99.99,,,0.06,Acu-Link.com,2013-05-09 00:47:00,
2013-05-08 19:02:00,35.4,33.0,29.85,ENE,67,1.1,-999.0,91,-99.99,,,0.07,Acu-Link.com,2013-05-09 01:02:00,
2013-05-08 19:18:00,35.2,33.1,29.85,ENE,67,0.0,-999.0,92,-99.99,,,0.08,Acu-Link.com,2013-05-09 01:18:00,
2013-05-08 19:33:00,34.5,32.7,29.86,ENE,67,3.2,-999.0,93,-99.99,,,0.09,Acu-Link.com,2013-05-09 01:33:00,
2013-05-08 19:48:00,33.8,32.8,29.87,ENE,67,2.7,-999.0,96,-99.99,,,0.10,Acu-Link.com,2013-05-09 01:48:00,
2013-05-08 20:03:00,33.3,32.8,29.87,ENE,67,1.1,-999.0,98,-99.99,,,0.10,Acu-Link.com,2013-05-09 02:03:00,
2013-05-08 20:18:00,32.9,32.4,29.87,ENE,67,2.2,-999.0,98,-99.99,,,0.11,Acu-Link.com,2013-05-09 02:18:00,
2013-05-08 20:33:00,32.7,32.5,29.87,ENE,67,2.2,-999.0,99,-99.99,,,0.11,Acu-Link.com,2013-05-09 02:33:00,
2013-05-08 20:48:00,32.5,32.3,29.88,ENE,67,2.2,-999.0,99,-99.99,,,0.11,Acu-Link.com,2013-05-09 02:48:00,
2013-05-08 21:03:00,32.5,32.3,29.88,ENE,67,1.1,-999.0,99,-99.99,,,0.11,Acu-Link.com,2013-05-09 03:03:00,
2013-05-08 21:18:00,32.5,32.3,29.88,ENE,67,0.0,-999.0,99,-99.99,,,0.11,Acu-Link.com,2013-05-09 03:18:00,
2013-05-08 21:34:00,32.5,32.3,29.88,ENE,67,2.2,-999.0,99,-99.99,,,0.11,Acu-Link.com,2013-05-09 03:34:00,
2013-05-08 21:49:00,32.7,32.5,29.89,ENE,67,2.2,-999.0,99,-99.99,,,0.11,Acu-Link.com,2013-05-09 03:49:00,
2013-05-08 22:04:00,32.7,32.5,29.89,ENE,67,3.7,-999.0,99,-99.99,,,0.11,Acu-Link.com,2013-05-09 04:04:00,
2013-05-08 22:19:00,32.7,32.5,29.89,ENE,67,1.7,-999.0,99,-99.99,,,0.11,Acu-Link.com,2013-05-09 04:19:00,
2013-05-08 22:34:00,32.9,32.7,29.88,ENE,67,3.2,-999.0,99,-99.99,,,0.11,Acu-Link.com,2013-05-09 04:34:00,
2013-05-08 22:49:00,32.9,32.7,29.89,East,90,1.7,-999.0,99,-99.99,,,0.11,Acu-Link.com,2013-05-09 04:49:00,
2013-05-08 23:04:00,32.9,32.7,29.89,East,90,2.7,-999.0,99,-99.99,,,0.11,Acu-Link.com,2013-05-09 05:04:00,
2013-05-08 23:19:00,32.9,32.7,29.90,East,90,4.2,-999.0,99,-99.99,,,0.11,Acu-Link.com,2013-05-09 05:19:00,
2013-05-08 23:34:00,32.9,32.7,29.90,East,90,3.2,-999.0,99,-99.99,,,0.12,Acu-Link.com,2013-05-09 05:34:00,
2013-05-08 23:50:00,32.9,32.7,29.90,East,90,3.2,-999.0,99,-99.99,,,0.12,Acu-Link.com,2013-05-09 05:50:00,